Sharon Hollow, Michigan
Current Conditions -  °F | °C
As of 11:40 PM on Friday 24 Oct 2014 (Local Time) from KARB Reporting Station
Haze Haze  
Wind Chill: 38°   Ceiling: Unl
Heat Index: 38°   Visibility: 2mi
Dew Point: 37°   Wind: 3mph
Humidity: 97%   Direction: 260°W
Pressure: 29.96"   Gusts: NA
Location:  42.1633°N, 84.0265°W
Report Text: KARB 250340Z AUTO 26003KT 2SM BR FEW016 03/03 A2996 RMK AO2 T00330028
Loading
Personal Weather Stations






























Interactive Weather Map
Tropical Storm Tracking
New forecast layout! Learn more

10-Day Weather Forecast

Advertisements
Track Severe Weather on mobile